sensor_id;sensor_type;location;lat;lon;timestamp;pressure;altitude;pressure_sealevel;temperature
71807;BMP280;59655;42.590;23.364;2022-12-29T00:01:13;92294.69;;;3.79
71807;BMP280;59655;42.590;23.364;2022-12-29T00:03:39;92292.22;;;3.96
71807;BMP280;59655;42.590;23.364;2022-12-29T00:06:04;92292.03;;;4.06
71807;BMP280;59655;42.590;23.364;2022-12-29T00:08:30;92281.88;;;4.19
71807;BMP280;59655;42.590;23.364;2022-12-29T00:11:10;92290.13;;;4.06
71807;BMP280;59655;42.590;23.364;2022-12-29T00:13:37;92296.28;;;3.97
71807;BMP280;59655;42.590;23.364;2022-12-29T00:16:21;92300.56;;;4.00
71807;BMP280;59655;42.590;23.364;2022-12-29T00:18:47;92302.31;;;3.77
71807;BMP280;59655;42.590;23.364;2022-12-29T00:21:14;92304.09;;;3.92
71807;BMP280;59655;42.590;23.364;2022-12-29T00:24:00;92298.34;;;3.88
71807;BMP280;59655;42.590;23.364;2022-12-29T00:26:43;92297.78;;;3.46
71807;BMP280;59655;42.590;23.364;2022-12-29T00:29:28;92293.41;;;3.64
71807;BMP280;59655;42.590;23.364;2022-12-29T00:32:12;92308.84;;;3.88
71807;BMP280;59655;42.590;23.364;2022-12-29T00:34:56;92305.38;;;4.02
71807;BMP280;59655;42.590;23.364;2022-12-29T00:37:34;92300.31;;;3.93
71807;BMP280;59655;42.590;23.364;2022-12-29T00:40:19;92303.38;;;3.91
71807;BMP280;59655;42.590;23.364;2022-12-29T00:43:03;92301.28;;;4.01
71807;BMP280;59655;42.590;23.364;2022-12-29T00:45:47;92288.06;;;3.84
71807;BMP280;59655;42.590;23.364;2022-12-29T00:48:12;92298.31;;;3.30
71807;BMP280;59655;42.590;23.364;2022-12-29T00:50:37;92288.28;;;3.54
71807;BMP280;59655;42.590;23.364;2022-12-29T00:53:03;92316.50;;;3.59
71807;BMP280;59655;42.590;23.364;2022-12-29T00:55:28;92313.44;;;3.67
71807;BMP280;59655;42.590;23.364;2022-12-29T00:57:54;92297.56;;;3.76
71807;BMP280;59655;42.590;23.364;2022-12-29T01:00:19;92300.63;;;3.74
71807;BMP280;59655;42.590;23.364;2022-12-29T01:02:45;92297.78;;;3.78
71807;BMP280;59655;42.590;23.364;2022-12-29T01:05:10;92301.97;;;3.90
71807;BMP280;59655;42.590;23.364;2022-12-29T01:07:35;92300.00;;;3.85
71807;BMP280;59655;42.590;23.364;2022-12-29T01:10:01;92304.16;;;3.66
71807;BMP280;59655;42.590;23.364;2022-12-29T01:12:35;92294.28;;;3.87
71807;BMP280;59655;42.590;23.364;2022-12-29T01:15:08;92288.00;;;3.47
71807;BMP280;59655;42.590;23.364;2022-12-29T01:17:34;92281.56;;;3.74
71807;BMP280;59655;42.590;23.364;2022-12-29T01:20:00;92280.59;;;3.71
71807;BMP280;59655;42.590;23.364;2022-12-29T01:22:25;92289.75;;;3.29
71807;BMP280;59655;42.590;23.364;2022-12-29T01:24:51;92288.28;;;3.54
71807;BMP280;59655;42.590;23.364;2022-12-29T01:27:16;92283.59;;;3.32
71807;BMP280;59655;42.590;23.364;2022-12-29T01:29:42;92269.25;;;2.81
71807;BMP280;59655;42.590;23.364;2022-12-29T01:32:07;92270.84;;;2.99
71807;BMP280;59655;42.590;23.364;2022-12-29T01:34:32;92268.63;;;3.38
71807;BMP280;59655;42.590;23.364;2022-12-29T01:36:58;92270.19;;;3.56
71807;BMP280;59655;42.590;23.364;2022-12-29T01:39:23;92266.91;;;3.35
71807;BMP280;59655;42.590;23.364;2022-12-29T01:41:49;92256.16;;;3.33
71807;BMP280;59655;42.590;23.364;2022-12-29T01:44:53;92255.38;;;3.01
71807;BMP280;59655;42.590;23.364;2022-12-29T01:47:25;92258.53;;;3.05
71807;BMP280;59655;42.590;23.364;2022-12-29T01:49:54;92263.44;;;3.44
71807;BMP280;59655;42.590;23.364;2022-12-29T01:52:22;92268.25;;;3.51
71807;BMP280;59655;42.590;23.364;2022-12-29T01:54:52;92266.56;;;3.48
71807;BMP280;59655;42.590;23.364;2022-12-29T01:57:27;92262.78;;;3.55
71807;BMP280;59655;42.590;23.364;2022-12-29T01:59:58;92267.41;;;3.66
71807;BMP280;59655;42.590;23.364;2022-12-29T02:02:25;92260.69;;;3.07
71807;BMP280;59655;42.590;23.364;2022-12-29T02:04:52;92256.97;;;3.13
71807;BMP280;59655;42.590;23.364;2022-12-29T02:07:20;92258.31;;;3.09
71807;BMP280;59655;42.590;23.364;2022-12-29T02:09:48;92252.75;;;2.95
71807;BMP280;59655;42.590;23.364;2022-12-29T02:12:14;92244.72;;;3.31
71807;BMP280;59655;42.590;23.364;2022-12-29T02:14:40;92244.81;;;3.16
71807;BMP280;59655;42.590;23.364;2022-12-29T02:17:09;92246.00;;;3.15
71807;BMP280;59655;42.590;23.364;2022-12-29T02:29:15;92246.38;;;3.34
71807;BMP280;59655;42.590;23.364;2022-12-29T02:37:17;92246.56;;;3.51
71807;BMP280;59655;42.590;23.364;2022-12-29T02:42:29;92238.94;;;3.00
71807;BMP280;59655;42.590;23.364;2022-12-29T02:50:20;92242.47;;;2.92
71807;BMP280;59655;42.590;23.364;2022-12-29T02:53:02;92239.72;;;3.07
71807;BMP280;59655;42.590;23.364;2022-12-29T02:55:29;92239.31;;;3.40
71807;BMP280;59655;42.590;23.364;2022-12-29T02:58:15;92238.75;;;3.04
71807;BMP280;59655;42.590;23.364;2022-12-29T03:00:52;92227.84;;;3.11
71807;BMP280;59655;42.590;23.364;2022-12-29T03:03:48;92229.94;;;3.33
71807;BMP280;59655;42.590;23.364;2022-12-29T03:09:20;92230.19;;;3.62
71807;BMP280;59655;42.590;23.364;2022-12-29T03:15:03;92231.09;;;3.58
71807;BMP280;59655;42.590;23.364;2022-12-29T03:18:08;92234.16;;;3.51
71807;BMP280;59655;42.590;23.364;2022-12-29T03:20:41;92229.22;;;3.07
71807;BMP280;59655;42.590;23.364;2022-12-29T03:23:10;92229.69;;;3.31
71807;BMP280;59655;42.590;23.364;2022-12-29T03:25:40;92228.59;;;3.44
71807;BMP280;59655;42.590;23.364;2022-12-29T03:28:12;92227.44;;;3.45
71807;BMP280;59655;42.590;23.364;2022-12-29T03:30:39;92233.97;;;3.60
71807;BMP280;59655;42.590;23.364;2022-12-29T03:33:12;92223.53;;;3.66
71807;BMP280;59655;42.590;23.364;2022-12-29T03:35:41;92231.59;;;3.63
71807;BMP280;59655;42.590;23.364;2022-12-29T03:38:12;92224.88;;;3.56
71807;BMP280;59655;42.590;23.364;2022-12-29T03:40:42;92225.16;;;3.32
71807;BMP280;59655;42.590;23.364;2022-12-29T03:43:08;92225.94;;;3.38
71807;BMP280;59655;42.590;23.364;2022-12-29T03:45:34;92231.09;;;3.27
71807;BMP280;59655;42.590;23.364;2022-12-29T03:48:00;92221.38;;;3.33
71807;BMP280;59655;42.590;23.364;2022-12-29T03:50:25;92222.38;;;3.41
71807;BMP280;59655;42.590;23.364;2022-12-29T03:52:51;92229.16;;;3.53
71807;BMP280;59655;42.590;23.364;2022-12-29T03:55:16;92236.78;;;3.51
71807;BMP280;59655;42.590;23.364;2022-12-29T03:57:42;92240.28;;;3.16
71807;BMP280;59655;42.590;23.364;2022-12-29T04:00:08;92236.63;;;3.08
71807;BMP280;59655;42.590;23.364;2022-12-29T04:02:33;92237.88;;;3.39
71807;BMP280;59655;42.590;23.364;2022-12-29T04:04:58;92238.63;;;3.45
71807;BMP280;59655;42.590;23.364;2022-12-29T04:07:24;92233.91;;;3.49
71807;BMP280;59655;42.590;23.364;2022-12-29T04:09:49;92241.63;;;3.32
71807;BMP280;59655;42.590;23.364;2022-12-29T04:12:15;92241.69;;;3.38
71807;BMP280;59655;42.590;23.364;2022-12-29T04:14:40;92237.47;;;3.46
71807;BMP280;59655;42.590;23.364;2022-12-29T04:17:06;92238.13;;;3.41
71807;BMP280;59655;42.590;23.364;2022-12-29T04:19:31;92242.13;;;3.10
71807;BMP280;59655;42.590;23.364;2022-12-29T04:21:57;92237.88;;;2.87
71807;BMP280;59655;42.590;23.364;2022-12-29T04:24:22;92235.56;;;2.94
71807;BMP280;59655;42.590;23.364;2022-12-29T04:26:48;92237.84;;;3.07
71807;BMP280;59655;42.590;23.364;2022-12-29T04:29:13;92239.38;;;3.19
71807;BMP280;59655;42.590;23.364;2022-12-29T04:31:38;92246.03;;;2.74
71807;BMP280;59655;42.590;23.364;2022-12-29T04:34:04;92241.53;;;2.74
71807;BMP280;59655;42.590;23.364;2022-12-29T04:36:29;92249.84;;;2.93
71807;BMP280;59655;42.590;23.364;2022-12-29T04:38:55;92243.44;;;3.21
71807;BMP280;59655;42.590;23.364;2022-12-29T04:41:20;92247.50;;;3.22
71807;BMP280;59655;42.590;23.364;2022-12-29T04:43:45;92250.13;;;2.95
71807;BMP280;59655;42.590;23.364;2022-12-29T04:46:11;92254.72;;;3.06
71807;BMP280;59655;42.590;23.364;2022-12-29T04:48:36;92252.75;;;3.22
71807;BMP280;59655;42.590;23.364;2022-12-29T04:51:01;92257.41;;;3.12
71807;BMP280;59655;42.590;23.364;2022-12-29T04:53:27;92265.59;;;3.19
71807;BMP280;59655;42.590;23.364;2022-12-29T04:55:52;92267.84;;;3.06
71807;BMP280;59655;42.590;23.364;2022-12-29T04:58:19;92280.34;;;3.17
71807;BMP280;59655;42.590;23.364;2022-12-29T05:00:44;92282.66;;;3.09
71807;BMP280;59655;42.590;23.364;2022-12-29T05:03:10;92273.72;;;3.22
71807;BMP280;59655;42.590;23.364;2022-12-29T05:05:35;92274.91;;;3.00
71807;BMP280;59655;42.590;23.364;2022-12-29T05:08:02;92269.88;;;2.76
71807;BMP280;59655;42.590;23.364;2022-12-29T05:10:27;92277.66;;;2.65
71807;BMP280;59655;42.590;23.364;2022-12-29T05:12:53;92275.59;;;2.95
71807;BMP280;59655;42.590;23.364;2022-12-29T05:15:18;92278.31;;;2.45
71807;BMP280;59655;42.590;23.364;2022-12-29T05:17:44;92282.97;;;2.76
71807;BMP280;59655;42.590;23.364;2022-12-29T05:20:09;92273.50;;;2.78
71807;BMP280;59655;42.590;23.364;2022-12-29T05:22:35;92266.44;;;2.85
71807;BMP280;59655;42.590;23.364;2022-12-29T05:25:01;92272.97;;;2.95
71807;BMP280;59655;42.590;23.364;2022-12-29T05:27:26;92272.13;;;2.83
71807;BMP280;59655;42.590;23.364;2022-12-29T05:29:52;92268.69;;;2.97
71807;BMP280;59655;42.590;23.364;2022-12-29T05:32:17;92273.19;;;3.17
71807;BMP280;59655;42.590;23.364;2022-12-29T05:34:43;92259.94;;;3.27
71807;BMP280;59655;42.590;23.364;2022-12-29T05:37:08;92273.72;;;3.22
71807;BMP280;59655;42.590;23.364;2022-12-29T05:39:33;92265.00;;;3.10
71807;BMP280;59655;42.590;23.364;2022-12-29T05:41:59;92268.94;;;3.20
71807;BMP280;59655;42.590;23.364;2022-12-29T05:44:25;92273.59;;;3.10
71807;BMP280;59655;42.590;23.364;2022-12-29T05:46:50;92271.56;;;3.20
71807;BMP280;59655;42.590;23.364;2022-12-29T05:49:16;92272.50;;;3.17
71807;BMP280;59655;42.590;23.364;2022-12-29T05:51:42;92272.88;;;3.10
71807;BMP280;59655;42.590;23.364;2022-12-29T05:54:07;92282.03;;;2.94
71807;BMP280;59655;42.590;23.364;2022-12-29T05:56:32;92288.88;;;2.91
71807;BMP280;59655;42.590;23.364;2022-12-29T05:58:58;92275.56;;;3.15
71807;BMP280;59655;42.590;23.364;2022-12-29T06:01:23;92281.53;;;3.16
71807;BMP280;59655;42.590;23.364;2022-12-29T06:03:49;92277.69;;;2.91
71807;BMP280;59655;42.590;23.364;2022-12-29T06:06:14;92290.13;;;2.75
71807;BMP280;59655;42.590;23.364;2022-12-29T06:08:40;92291.06;;;2.93
71807;BMP280;59655;42.590;23.364;2022-12-29T06:11:05;92294.44;;;2.99
71807;BMP280;59655;42.590;23.364;2022-12-29T06:13:31;92298.91;;;3.13
71807;BMP280;59655;42.590;23.364;2022-12-29T06:15:58;92294.16;;;3.17
71807;BMP280;59655;42.590;23.364;2022-12-29T06:18:23;92293.31;;;3.26
71807;BMP280;59655;42.590;23.364;2022-12-29T06:20:48;92298.84;;;3.34
71807;BMP280;59655;42.590;23.364;2022-12-29T06:23:14;92303.38;;;3.07
71807;BMP280;59655;42.590;23.364;2022-12-29T06:25:40;92299.81;;;3.10
71807;BMP280;59655;42.590;23.364;2022-12-29T06:28:05;92300.31;;;3.14
71807;BMP280;59655;42.590;23.364;2022-12-29T06:30:32;92304.28;;;3.25
71807;BMP280;59655;42.590;23.364;2022-12-29T06:32:58;92302.66;;;3.33
71807;BMP280;59655;42.590;23.364;2022-12-29T06:35:23;92308.56;;;3.28
71807;BMP280;59655;42.590;23.364;2022-12-29T06:37:49;92304.34;;;3.36
71807;BMP280;59655;42.590;23.364;2022-12-29T06:40:15;92302.03;;;3.44
71807;BMP280;59655;42.590;23.364;2022-12-29T06:42:40;92301.59;;;3.45
71807;BMP280;59655;42.590;23.364;2022-12-29T06:45:06;92298.19;;;3.13
71807;BMP280;59655;42.590;23.364;2022-12-29T06:47:33;92293.09;;;2.83
71807;BMP280;59655;42.590;23.364;2022-12-29T06:49:59;92293.66;;;2.93
71807;BMP280;59655;42.590;23.364;2022-12-29T06:52:24;92300.66;;;3.22
71807;BMP280;59655;42.590;23.364;2022-12-29T06:54:50;92307.25;;;3.38
71807;BMP280;59655;42.590;23.364;2022-12-29T06:57:15;92306.31;;;3.41
71807;BMP280;59655;42.590;23.364;2022-12-29T06:59:40;92308.13;;;3.55
71807;BMP280;59655;42.590;23.364;2022-12-29T07:02:06;92310.31;;;3.63
71807;BMP280;59655;42.590;23.364;2022-12-29T07:04:32;92317.00;;;3.64
71807;BMP280;59655;42.590;23.364;2022-12-29T07:06:57;92325.34;;;3.62
71807;BMP280;59655;42.590;23.364;2022-12-29T07:09:22;92317.00;;;3.64
71807;BMP280;59655;42.590;23.364;2022-12-29T07:11:48;92315.34;;;3.66
71807;BMP280;59655;42.590;23.364;2022-12-29T07:14:13;92315.16;;;3.70
71807;BMP280;59655;42.590;23.364;2022-12-29T07:16:39;92310.91;;;3.78
71807;BMP280;59655;42.590;23.364;2022-12-29T07:19:04;92309.78;;;3.85
71807;BMP280;59655;42.590;23.364;2022-12-29T07:21:30;92308.13;;;3.87
71807;BMP280;59655;42.590;23.364;2022-12-29T07:23:55;92306.72;;;3.92
71807;BMP280;59655;42.590;23.364;2022-12-29T07:26:21;92303.69;;;3.99
71807;BMP280;59655;42.590;23.364;2022-12-29T07:28:47;92303.47;;;4.03
71807;BMP280;59655;42.590;23.364;2022-12-29T07:31:18;92309.88;;;4.01
71807;BMP280;59655;42.590;23.364;2022-12-29T07:33:45;92311.38;;;4.08
71807;BMP280;59655;42.590;23.364;2022-12-29T07:36:12;92311.63;;;4.10
71807;BMP280;59655;42.590;23.364;2022-12-29T07:38:38;92318.59;;;4.13
71807;BMP280;59655;42.590;23.364;2022-12-29T07:41:03;92314.75;;;4.14
71807;BMP280;59655;42.590;23.364;2022-12-29T07:43:30;92313.09;;;4.11
71807;BMP280;59655;42.590;23.364;2022-12-29T07:45:55;92312.84;;;4.15
71807;BMP280;59655;42.590;23.364;2022-12-29T07:48:22;92309.69;;;4.05
71807;BMP280;59655;42.590;23.364;2022-12-29T07:50:48;92304.94;;;4.09
71807;BMP280;59655;42.590;23.364;2022-12-29T07:53:13;92309.53;;;4.14
71807;BMP280;59655;42.590;23.364;2022-12-29T07:55:39;92317.44;;;4.20
71807;BMP280;59655;42.590;23.364;2022-12-29T07:58:05;92324.13;;;4.21
71807;BMP280;59655;42.590;23.364;2022-12-29T08:00:30;92320.53;;;4.18
71807;BMP280;59655;42.590;23.364;2022-12-29T08:02:56;92322.22;;;4.21
71807;BMP280;59655;42.590;23.364;2022-12-29T08:05:21;92320.53;;;4.24
71807;BMP280;59655;42.590;23.364;2022-12-29T08:07:47;92325.34;;;4.26
71807;BMP280;59655;42.590;23.364;2022-12-29T08:10:13;92327.28;;;4.31
71807;BMP280;59655;42.590;23.364;2022-12-29T08:12:39;92326.34;;;4.34
71807;BMP280;59655;42.590;23.364;2022-12-29T08:15:06;92336.66;;;4.37
71807;BMP280;59655;42.590;23.364;2022-12-29T08:17:32;92329.97;;;4.36
71807;BMP280;59655;42.590;23.364;2022-12-29T08:19:58;92334.97;;;4.40
71807;BMP280;59655;42.590;23.364;2022-12-29T08:22:23;92324.47;;;4.40
71807;BMP280;59655;42.590;23.364;2022-12-29T08:24:48;92324.69;;;4.42
71807;BMP280;59655;42.590;23.364;2022-12-29T08:27:14;92318.53;;;4.45
71807;BMP280;59655;42.590;23.364;2022-12-29T08:29:39;92323.53;;;4.43
71807;BMP280;59655;42.590;23.364;2022-12-29T08:32:05;92315.69;;;4.49
71807;BMP280;59655;42.590;23.364;2022-12-29T08:34:31;92317.09;;;4.50
71807;BMP280;59655;42.590;23.364;2022-12-29T08:36:57;92312.38;;;4.54
71807;BMP280;59655;42.590;23.364;2022-12-29T08:39:22;92316.69;;;4.57
71807;BMP280;59655;42.590;23.364;2022-12-29T08:41:48;92321.47;;;4.58
71807;BMP280;59655;42.590;23.364;2022-12-29T08:44:13;92314.78;;;4.63
71807;BMP280;59655;42.590;23.364;2022-12-29T08:46:39;92316.94;;;4.65
71807;BMP280;59655;42.590;23.364;2022-12-29T08:49:04;92314.31;;;4.65
71807;BMP280;59655;42.590;23.364;2022-12-29T08:51:29;92319.81;;;4.67
71807;BMP280;59655;42.590;23.364;2022-12-29T08:53:55;92314.09;;;4.68
71807;BMP280;59655;42.590;23.364;2022-12-29T08:56:20;92310.28;;;4.69
71807;BMP280;59655;42.590;23.364;2022-12-29T08:58:46;92309.34;;;4.72
71807;BMP280;59655;42.590;23.364;2022-12-29T09:01:11;92319.63;;;4.76
71807;BMP280;59655;42.590;23.364;2022-12-29T09:03:37;92312.47;;;4.76
71807;BMP280;59655;42.590;23.364;2022-12-29T09:06:03;92309.63;;;4.86
71807;BMP280;59655;42.590;23.364;2022-12-29T09:08:28;92310.88;;;4.96
71807;BMP280;59655;42.590;23.364;2022-12-29T09:10:53;92310.63;;;4.99
71807;BMP280;59655;42.590;23.364;2022-12-29T09:13:19;92309.44;;;5.00
71807;BMP280;59655;42.590;23.364;2022-12-29T09:15:44;92304.66;;;4.99
71807;BMP280;59655;42.590;23.364;2022-12-29T09:18:10;92302.72;;;4.99
71807;BMP280;59655;42.590;23.364;2022-12-29T09:20:36;92300.13;;;5.05
71807;BMP280;59655;42.590;23.364;2022-12-29T09:23:03;92304.66;;;5.04
71807;BMP280;59655;42.590;23.364;2022-12-29T09:25:29;92308.50;;;5.09
71807;BMP280;59655;42.590;23.364;2022-12-29T09:27:54;92303.47;;;5.06
71807;BMP280;59655;42.590;23.364;2022-12-29T09:30:21;92303.72;;;5.08
71807;BMP280;59655;42.590;23.364;2022-12-29T09:32:48;92305.69;;;5.24
71807;BMP280;59655;42.590;23.364;2022-12-29T09:35:14;92300.16;;;5.22
71807;BMP280;59655;42.590;23.364;2022-12-29T09:37:42;92298.50;;;5.24
71807;BMP280;59655;42.590;23.364;2022-12-29T09:40:22;92294.94;;;5.28
71807;BMP280;59655;42.590;23.364;2022-12-29T09:43:16;92294.47;;;5.29
71807;BMP280;59655;42.590;23.364;2022-12-29T09:46:16;92297.81;;;5.30
71807;BMP280;59655;42.590;23.364;2022-12-29T09:48:41;92298.53;;;5.30
71807;BMP280;59655;42.590;23.364;2022-12-29T09:51:11;92287.03;;;5.33
71807;BMP280;59655;42.590;23.364;2022-12-29T09:53:41;92296.13;;;5.38
71807;BMP280;59655;42.590;23.364;2022-12-29T09:56:18;92299.47;;;5.38
71807;BMP280;59655;42.590;23.364;2022-12-29T09:58:54;92291.09;;;5.40
71807;BMP280;59655;42.590;23.364;2022-12-29T10:04:16;92285.84;;;5.45
71807;BMP280;59655;42.590;23.364;2022-12-29T10:07:08;92280.34;;;5.49
71807;BMP280;59655;42.590;23.364;2022-12-29T10:12:56;92268.88;;;5.52
71807;BMP280;59655;42.590;23.364;2022-12-29T10:18:18;92276.97;;;5.65
71807;BMP280;59655;42.590;23.364;2022-12-29T10:20:52;92275.81;;;5.61
71807;BMP280;59655;42.590;23.364;2022-12-29T10:23:31;92264.81;;;5.62
71807;BMP280;59655;42.590;23.364;2022-12-29T10:25:58;92266.47;;;5.65
71807;BMP280;59655;42.590;23.364;2022-12-29T10:28:34;92268.16;;;5.69
71807;BMP280;59655;42.590;23.364;2022-12-29T10:31:05;92268.63;;;5.67
71807;BMP280;59655;42.590;23.364;2022-12-29T10:33:37;92270.31;;;5.70
71807;BMP280;59655;42.590;23.364;2022-12-29T10:36:25;92264.06;;;5.73
71807;BMP280;59655;42.590;23.364;2022-12-29T10:43:59;92267.44;;;5.74
71807;BMP280;59655;42.590;23.364;2022-12-29T10:46:29;92258.56;;;5.77
71807;BMP280;59655;42.590;23.364;2022-12-29T10:48:55;92255.22;;;5.76
71807;BMP280;59655;42.590;23.364;2022-12-29T10:51:26;92250.19;;;5.78
71807;BMP280;59655;42.590;23.364;2022-12-29T10:57:01;92249.94;;;5.82
71807;BMP280;59655;42.590;23.364;2022-12-29T10:59:33;92244.19;;;5.83
71807;BMP280;59655;42.590;23.364;2022-12-29T11:04:35;92241.81;;;5.91
71807;BMP280;59655;42.590;23.364;2022-12-29T11:07:04;92240.84;;;5.94
71807;BMP280;59655;42.590;23.364;2022-12-29T11:09:34;92234.34;;;6.01
71807;BMP280;59655;42.590;23.364;2022-12-29T11:12:18;92228.63;;;5.97
71807;BMP280;59655;42.590;23.364;2022-12-29T11:14:44;92227.63;;;6.05
71807;BMP280;59655;42.590;23.364;2022-12-29T11:17:15;92222.38;;;6.05
71807;BMP280;59655;42.590;23.364;2022-12-29T11:19:41;92221.91;;;6.07
71807;BMP280;59655;42.590;23.364;2022-12-29T11:22:23;92220.66;;;6.14
71807;BMP280;59655;42.590;23.364;2022-12-29T11:24:51;92215.88;;;6.12
71807;BMP280;59655;42.590;23.364;2022-12-29T11:27:23;92220.19;;;6.10
71807;BMP280;59655;42.590;23.364;2022-12-29T11:29:50;92220.41;;;6.12
71807;BMP280;59655;42.590;23.364;2022-12-29T11:32:20;92210.63;;;6.12
71807;BMP280;59655;42.590;23.364;2022-12-29T11:34:46;92213.72;;;6.22
71807;BMP280;59655;42.590;23.364;2022-12-29T11:37:12;92221.84;;;6.24
71807;BMP280;59655;42.590;23.364;2022-12-29T11:39:57;92214.88;;;6.26
71807;BMP280;59655;42.590;23.364;2022-12-29T11:42:51;92211.06;;;6.27
71807;BMP280;59655;42.590;23.364;2022-12-29T11:45:22;92209.13;;;6.28
71807;BMP280;59655;42.590;23.364;2022-12-29T11:47:52;92206.25;;;6.32
71807;BMP280;59655;42.590;23.364;2022-12-29T11:50:21;92215.28;;;6.42
71807;BMP280;59655;42.590;23.364;2022-12-29T11:52:50;92213.88;;;6.41
71807;BMP280;59655;42.590;23.364;2022-12-29T11:55:25;92219.38;;;6.43
71807;BMP280;59655;42.590;23.364;2022-12-29T11:57:52;92215.53;;;6.44
71807;BMP280;59655;42.590;23.364;2022-12-29T12:00:21;92204.03;;;6.47
71807;BMP280;59655;42.590;23.364;2022-12-29T12:08:02;92212.38;;;6.57
71807;BMP280;59655;42.590;23.364;2022-12-29T12:10:36;92205.41;;;6.59
71807;BMP280;59655;42.590;23.364;2022-12-29T12:13:17;92211.63;;;6.62
71807;BMP280;59655;42.590;23.364;2022-12-29T12:15:47;92203.94;;;6.64
71807;BMP280;59655;42.590;23.364;2022-12-29T12:20:55;92204.44;;;6.62
71807;BMP280;59655;42.590;23.364;2022-12-29T12:23:41;92198.16;;;6.65
71807;BMP280;59655;42.590;23.364;2022-12-29T12:26:21;92193.63;;;6.66
71807;BMP280;59655;42.590;23.364;2022-12-29T12:28:54;92194.78;;;6.70
71807;BMP280;59655;42.590;23.364;2022-12-29T12:32:01;92191.69;;;6.72
71807;BMP280;59655;42.590;23.364;2022-12-29T12:34:41;92198.81;;;6.77
71807;BMP280;59655;42.590;23.364;2022-12-29T12:45:14;92189.66;;;6.89
71807;BMP280;59655;42.590;23.364;2022-12-29T13:04:27;92199.00;;;7.21
71807;BMP280;59655;42.590;23.364;2022-12-29T13:07:20;92196.38;;;7.21
71807;BMP280;59655;42.590;23.364;2022-12-29T13:24:35;92202.88;;;7.50
71807;BMP280;59655;42.590;23.364;2022-12-29T13:26:54;92192.50;;;7.52
71807;BMP280;59655;42.590;23.364;2022-12-29T13:37:20;92195.13;;;7.52
71807;BMP280;59655;42.590;23.364;2022-12-29T13:40:01;92196.38;;;7.51
71807;BMP280;59655;42.590;23.364;2022-12-29T13:42:29;92194.22;;;7.49
71807;BMP280;59655;42.590;23.364;2022-12-29T13:45:05;92193.03;;;7.45
71807;BMP280;59655;42.590;23.364;2022-12-29T13:47:38;92199.56;;;7.44
71807;BMP280;59655;42.590;23.364;2022-12-29T13:50:13;92195.03;;;7.39
71807;BMP280;59655;42.590;23.364;2022-12-29T13:52:49;92196.75;;;7.36
71807;BMP280;59655;42.590;23.364;2022-12-29T13:55:26;92201.34;;;7.30
71807;BMP280;59655;42.590;23.364;2022-12-29T14:03:50;92203.63;;;7.15
71807;BMP280;59655;42.590;23.364;2022-12-29T14:06:31;92203.75;;;6.92
71807;BMP280;59655;42.590;23.364;2022-12-29T14:09:02;92204.16;;;7.07
71807;BMP280;59655;42.590;23.364;2022-12-29T14:11:36;92202.00;;;7.06
71807;BMP280;59655;42.590;23.364;2022-12-29T14:14:23;92206.94;;;6.85
71807;BMP280;59655;42.590;23.364;2022-12-29T14:16:50;92200.41;;;6.91
71807;BMP280;59655;42.590;23.364;2022-12-29T14:19:20;92213.34;;;6.95
71807;BMP280;59655;42.590;23.364;2022-12-29T14:21:55;92200.63;;;6.94
71807;BMP280;59655;42.590;23.364;2022-12-29T14:34:48;92213.53;;;6.61
71807;BMP280;59655;42.590;23.364;2022-12-29T14:40:17;92221.88;;;6.71
71807;BMP280;59655;42.590;23.364;2022-12-29T14:42:45;92219.72;;;6.69
71807;BMP280;59655;42.590;23.364;2022-12-29T14:47:40;92232.38;;;6.30
71807;BMP280;59655;42.590;23.364;2022-12-29T14:50:51;92236.84;;;6.40
71807;BMP280;59655;42.590;23.364;2022-12-29T14:52:58;92233.69;;;6.53
71807;BMP280;59655;42.590;23.364;2022-12-29T14:58:25;92231.28;;;6.61
71807;BMP280;59655;42.590;23.364;2022-12-29T15:00:52;92226.53;;;6.48
71807;BMP280;59655;42.590;23.364;2022-12-29T15:05:53;92235.00;;;6.30
71807;BMP280;59655;42.590;23.364;2022-12-29T15:08:22;92228.09;;;6.21
71807;BMP280;59655;42.590;23.364;2022-12-29T15:11:01;92230.22;;;6.28
71807;BMP280;59655;42.590;23.364;2022-12-29T15:13:39;92229.22;;;6.31
71807;BMP280;59655;42.590;23.364;2022-12-29T15:16:20;92228.53;;;6.25
71807;BMP280;59655;42.590;23.364;2022-12-29T15:18:46;92242.22;;;6.12
71807;BMP280;59655;42.590;23.364;2022-12-29T15:21:14;92235.03;;;6.13
71807;BMP280;59655;42.590;23.364;2022-12-29T15:23:40;92239.38;;;6.16
71807;BMP280;59655;42.590;23.364;2022-12-29T15:26:08;92227.13;;;6.13
71807;BMP280;59655;42.590;23.364;2022-12-29T15:28:42;92232.69;;;5.98
71807;BMP280;59655;42.590;23.364;2022-12-29T15:31:12;92233.38;;;6.04
71807;BMP280;59655;42.590;23.364;2022-12-29T15:33:40;92232.47;;;5.90
71807;BMP280;59655;42.590;23.364;2022-12-29T15:36:12;92237.97;;;5.92
71807;BMP280;59655;42.590;23.364;2022-12-29T15:38:38;92242.75;;;5.94
71807;BMP280;59655;42.590;23.364;2022-12-29T15:46:21;92236.31;;;5.66
71807;BMP280;59655;42.590;23.364;2022-12-29T15:48:47;92237.53;;;5.60
71807;BMP280;59655;42.590;23.364;2022-12-29T15:51:18;92227.22;;;5.68
71807;BMP280;59655;42.590;23.364;2022-12-29T15:53:47;92221.25;;;5.78
71807;BMP280;59655;42.590;23.364;2022-12-29T15:56:14;92218.59;;;5.78
71807;BMP280;59655;42.590;23.364;2022-12-29T15:58:42;92228.19;;;5.64
71807;BMP280;59655;42.590;23.364;2022-12-29T16:01:38;92221.25;;;5.50
71807;BMP280;59655;42.590;23.364;2022-12-29T16:04:05;92227.00;;;5.43
71807;BMP280;59655;42.590;23.364;2022-12-29T16:09:18;92222.00;;;5.45
71807;BMP280;59655;42.590;23.364;2022-12-29T16:11:51;92232.06;;;5.47
71807;BMP280;59655;42.590;23.364;2022-12-29T16:14:21;92235.63;;;5.60
71807;BMP280;59655;42.590;23.364;2022-12-29T16:16:50;92239.69;;;5.61
71807;BMP280;59655;42.590;23.364;2022-12-29T16:21:46;92234.41;;;5.67
71807;BMP280;59655;42.590;23.364;2022-12-29T16:24:16;92244.22;;;5.66
71807;BMP280;59655;42.590;23.364;2022-12-29T16:27:13;92241.84;;;5.46
71807;BMP280;59655;42.590;23.364;2022-12-29T16:29:42;92232.97;;;5.55
71807;BMP280;59655;42.590;23.364;2022-12-29T16:32:45;92233.44;;;5.53
71807;BMP280;59655;42.590;23.364;2022-12-29T16:35:22;92231.53;;;5.65
71807;BMP280;59655;42.590;23.364;2022-12-29T16:38:06;92231.06;;;5.66
71807;BMP280;59655;42.590;23.364;2022-12-29T16:40:38;92229.66;;;5.43
71807;BMP280;59655;42.590;23.364;2022-12-29T16:43:04;92230.13;;;5.41
71807;BMP280;59655;42.590;23.364;2022-12-29T16:50:41;92226.03;;;5.46